Погода Ахаравина неделю

Ионические острова, Греция

31 августа-06 сентября
  • 31августа
    Сегодня
    +24°
    +36°
    Практически безоблачно
    ВремяПогодаТемператураВлажностьДавлениеВетер, м/сВероятность осадков
    00:00Ясно и безоблачно+27°C91 %760 мм3.2 м/с2 %
    03:00Ясно и безоблачно+27°C86 %760 мм4.1 м/с2 %
    06:00Ясно и безоблачно+26°C85 %759 мм3.6 м/с2 %
    09:00Ясно и безоблачно+28°C78 %759 мм2.9 м/с2 %
    12:00Ясно и безоблачно+33°C62 %760 мм3.5 м/с1 %
    15:00Практически безоблачно+35°C65 %759 мм1.9 м/с15 %
    18:00Ясно и безоблачно+34°C72 %759 мм0.9 м/с16 %
    21:00Ясно и безоблачно+29°C83 %759 мм0.6 м/с4 %
  • 01сентября
    Вторник
    +23°
    +34°
    Ясно и безоблачно
    ВремяПогодаТемператураВлажностьДавлениеВетер, м/сВероятность осадков
    00:00Ясно и безоблачно+27°C89 %760 мм1.4 м/с2 %
    03:00Ясно и безоблачно+25°C93 %760 мм1.4 м/с2 %
    06:00Ясно и безоблачно+25°C88 %760 мм0.9 м/с2 %
    09:00Ясно и безоблачно+27°C80 %760 мм0.7 м/с2 %
    12:00Ясно и безоблачно+32°C77 %761 мм2.8 м/с2 %
    15:00Ясно и безоблачно+34°C80 %761 мм3.5 м/с10 %
    18:00Ясно и безоблачно+32°C83 %760 мм2.4 м/с13 %
    21:00Ясно и безоблачно+29°C88 %760 мм0.7 м/с2 %
  • 02сентября
    Среда
    +22°
    +34°
    Ясно и безоблачно
    ВремяПогодаТемператураВлажностьДавлениеВетер, м/сВероятность осадков
    00:00Ясно и безоблачно+27°C91 %760 мм0.5 м/с2 %
    03:00Ясно и безоблачно+25°C92 %760 мм1.0 м/с2 %
    06:00Ясно и безоблачно+24°C93 %760 мм0.6 м/с2 %
    09:00Ясно и безоблачно+26°C88 %760 мм0.8 м/с2 %
    12:00Ясно и безоблачно+33°C75 %761 мм2.0 м/с2 %
    15:00Ясно и безоблачно+34°C81 %760 мм2.0 м/с3 %
    18:00Ясно и безоблачно+32°C84 %760 мм1.8 м/с3 %
    21:00Ясно и безоблачно+28°C85 %760 мм1.4 м/с2 %
  • 03сентября
    Четверг
    +22°
    +33°
    Ясно и безоблачно
    ВремяПогодаТемператураВлажностьДавлениеВетер, м/сВероятность осадков
    00:00Ясно и безоблачно+26°C88 %760 мм0.3 м/с2 %
    03:00Ясно и безоблачно+25°C85 %759 мм0.8 м/с2 %
    06:00Ясно и безоблачно+23°C84 %759 мм0.8 м/с2 %
    09:00Ясно и безоблачно+26°C80 %759 мм1.2 м/с2 %
    12:00Ясно и безоблачно+31°C66 %760 мм4.7 м/с2 %
    15:00Ясно и безоблачно+33°C77 %759 мм8.3 м/с4 %
    18:00Ясно и безоблачно+31°C81 %758 мм8.4 м/с5 %
    21:00Ясно и безоблачно+29°C83 %758 мм3.6 м/с5 %
  • 04сентября
    Пятница
    +21°
    +33°
    Ясно и безоблачно
    ВремяПогодаТемператураВлажностьДавлениеВетер, м/сВероятность осадков
    00:00Ясно и безоблачно+27°C80 %759 мм1.2 м/с2 %
    03:00Ясно и безоблачно+24°C76 %759 мм0.4 м/с2 %
    06:00Ясно и безоблачно+23°C78 %759 мм1.4 м/с2 %
    09:00Ясно и безоблачно+25°C68 %760 мм1.5 м/с2 %
    12:00Ясно и безоблачно+32°C51 %761 мм1.5 м/с2 %
    15:00Ясно и безоблачно+32°C62 %761 мм5.0 м/с3 %
    18:00Ясно и безоблачно+31°C68 %760 мм4.9 м/с2 %
    21:00Ясно и безоблачно+29°C66 %761 мм4.1 м/с2 %
  • 05сентября
    Суббота
    +23°
    +33°
    Ясно и безоблачно
    ВремяПогодаТемператураВлажностьДавлениеВетер, м/сВероятность осадков
    03:00Ясно и безоблачно+23°C79 %762 мм1.1 м/с2 %
    09:00Ясно и безоблачно+25°C61 %764 мм0.7 м/с2 %
    15:00Ясно и безоблачно+30°C48 %764 мм3.0 м/с2 %
    21:00Ясно и безоблачно+26°C59 %762 мм3.6 м/с2 %
  • 06сентября
    Воскресенье
    +23°
    +31°
    Ясно и безоблачно
    ВремяПогодаТемператураВлажностьДавлениеВетер, м/сВероятность осадков
    03:00Ясно и безоблачно+25°C69 %763 мм2.2 м/с2 %
    09:00Ясно и безоблачно+25°C66 %763 мм2.0 м/с2 %
    15:00Ясно и безоблачно+30°C61 %763 мм3.9 м/с2 %
    21:00Ясно и безоблачно+27°C71 %762 мм3.1 м/с2 %
Мы используем cookies
Соглашаюсь